Terminal Aerodrome Forecast
Issued by NWS Sterling, VA

Home | Current Version | Previous Version | Text Only | Print | Product List | Glossary On
Versions: 1 2 3 4 5 6 7 8 9 10 11 12 13 14 15 16 17 18 19 20 21 22 23 24 25 26
207
FTUS41 KLWX 222328
TAFCHO
TAF
KCHO 222328Z 2300/2324 06007KT 2SM -RA OVC005
     FM230500 05010KT 1 1/2SM RA BR OVC003
     FM231800 06006KT 1SM -RA OVC003=

USA.gov is the U.S. government's official web portal to all federal, state and local government web resources and services.